sensor_id;sensor_type;location;lat;lon;timestamp;P1;durP1;ratioP1;P2;durP2;ratioP2
5121;SDS011;2563;52.242;7.956;2023-10-13T00:02:10;35.07;;;14.83;;
5121;SDS011;2563;52.242;7.956;2023-10-13T00:04:36;31.43;;;15.17;;
5121;SDS011;2563;52.242;7.956;2023-10-13T00:07:02;24.33;;;14.00;;
5121;SDS011;2563;52.242;7.956;2023-10-13T00:09:29;25.53;;;14.37;;
5121;SDS011;2563;52.242;7.956;2023-10-13T00:12:00;31.00;;;13.73;;
5121;SDS011;2563;52.242;7.956;2023-10-13T00:14:26;31.13;;;14.70;;
5121;SDS011;2563;52.242;7.956;2023-10-13T00:17:03;30.70;;;15.57;;
5121;SDS011;2563;52.242;7.956;2023-10-13T00:19:38;39.00;;;16.50;;
5121;SDS011;2563;52.242;7.956;2023-10-13T00:22:11;26.03;;;13.63;;
5121;SDS011;2563;52.242;7.956;2023-10-13T00:24:37;24.00;;;14.10;;
5121;SDS011;2563;52.242;7.956;2023-10-13T00:27:19;29.10;;;14.33;;
5121;SDS011;2563;52.242;7.956;2023-10-13T00:29:59;28.00;;;15.30;;
5121;SDS011;2563;52.242;7.956;2023-10-13T00:32:43;31.13;;;15.00;;
5121;SDS011;2563;52.242;7.956;2023-10-13T00:35:10;26.90;;;14.17;;
5121;SDS011;2563;52.242;7.956;2023-10-13T00:37:50;32.60;;;13.90;;
5121;SDS011;2563;52.242;7.956;2023-10-13T00:40:19;27.50;;;14.87;;
5121;SDS011;2563;52.242;7.956;2023-10-13T00:42:57;32.70;;;15.03;;
5121;SDS011;2563;52.242;7.956;2023-10-13T00:45:41;31.90;;;15.33;;
5121;SDS011;2563;52.242;7.956;2023-10-13T00:48:09;28.20;;;15.60;;
5121;SDS011;2563;52.242;7.956;2023-10-13T00:50:39;35.80;;;17.00;;
5121;SDS011;2563;52.242;7.956;2023-10-13T00:53:06;28.83;;;16.10;;
5121;SDS011;2563;52.242;7.956;2023-10-13T00:55:32;38.23;;;16.57;;
5121;SDS011;2563;52.242;7.956;2023-10-13T00:58:01;32.17;;;16.80;;
5121;SDS011;2563;52.242;7.956;2023-10-13T01:00:31;32.27;;;16.50;;
5121;SDS011;2563;52.242;7.956;2023-10-13T01:02:57;30.50;;;17.30;;
5121;SDS011;2563;52.242;7.956;2023-10-13T01:05:30;35.10;;;18.70;;
5121;SDS011;2563;52.242;7.956;2023-10-13T01:07:59;36.03;;;18.97;;
5121;SDS011;2563;52.242;7.956;2023-10-13T01:10:26;36.47;;;19.50;;
5121;SDS011;2563;52.242;7.956;2023-10-13T01:12:52;33.97;;;18.60;;
5121;SDS011;2563;52.242;7.956;2023-10-13T01:15:19;34.83;;;17.87;;
5121;SDS011;2563;52.242;7.956;2023-10-13T01:17:48;34.87;;;18.00;;
5121;SDS011;2563;52.242;7.956;2023-10-13T01:20:14;32.33;;;17.63;;
5121;SDS011;2563;52.242;7.956;2023-10-13T01:22:46;32.47;;;17.10;;
5121;SDS011;2563;52.242;7.956;2023-10-13T01:25:21;28.43;;;16.27;;
5121;SDS011;2563;52.242;7.956;2023-10-13T01:27:53;32.40;;;17.40;;
5121;SDS011;2563;52.242;7.956;2023-10-13T01:30:19;34.70;;;18.57;;
5121;SDS011;2563;52.242;7.956;2023-10-13T01:32:49;35.43;;;18.40;;
5121;SDS011;2563;52.242;7.956;2023-10-13T01:35:16;27.90;;;17.03;;
5121;SDS011;2563;52.242;7.956;2023-10-13T01:37:44;40.80;;;18.07;;
5121;SDS011;2563;52.242;7.956;2023-10-13T01:40:12;36.63;;;18.37;;
5121;SDS011;2563;52.242;7.956;2023-10-13T01:42:41;31.67;;;17.00;;
5121;SDS011;2563;52.242;7.956;2023-10-13T01:45:06;39.53;;;19.87;;
5121;SDS011;2563;52.242;7.956;2023-10-13T01:47:32;32.87;;;16.90;;
5121;SDS011;2563;52.242;7.956;2023-10-13T01:49:58;31.67;;;18.00;;
5121;SDS011;2563;52.242;7.956;2023-10-13T01:52:31;34.83;;;18.00;;
5121;SDS011;2563;52.242;7.956;2023-10-13T01:54:57;38.40;;;18.90;;
5121;SDS011;2563;52.242;7.956;2023-10-13T01:57:26;35.70;;;18.10;;
5121;SDS011;2563;52.242;7.956;2023-10-13T01:59:53;27.00;;;16.53;;
5121;SDS011;2563;52.242;7.956;2023-10-13T02:02:20;32.70;;;16.23;;
5121;SDS011;2563;52.242;7.956;2023-10-13T02:04:54;30.43;;;16.70;;
5121;SDS011;2563;52.242;7.956;2023-10-13T02:07:27;34.93;;;16.80;;
5121;SDS011;2563;52.242;7.956;2023-10-13T02:09:57;32.70;;;17.03;;
5121;SDS011;2563;52.242;7.956;2023-10-13T02:12:23;26.40;;;15.20;;
5121;SDS011;2563;52.242;7.956;2023-10-13T02:14:54;33.73;;;15.00;;
5121;SDS011;2563;52.242;7.956;2023-10-13T02:17:19;29.70;;;16.40;;
5121;SDS011;2563;52.242;7.956;2023-10-13T02:19:46;25.90;;;15.10;;
5121;SDS011;2563;52.242;7.956;2023-10-13T02:22:12;27.20;;;15.23;;
5121;SDS011;2563;52.242;7.956;2023-10-13T02:24:50;26.20;;;15.23;;
5121;SDS011;2563;52.242;7.956;2023-10-13T02:27:17;31.20;;;14.63;;
5121;SDS011;2563;52.242;7.956;2023-10-13T02:29:48;29.73;;;14.87;;
5121;SDS011;2563;52.242;7.956;2023-10-13T02:32:14;29.90;;;15.50;;
5121;SDS011;2563;52.242;7.956;2023-10-13T02:34:45;27.93;;;13.50;;
5121;SDS011;2563;52.242;7.956;2023-10-13T02:37:11;31.70;;;13.93;;
5121;SDS011;2563;52.242;7.956;2023-10-13T02:39:38;22.80;;;12.87;;
5121;SDS011;2563;52.242;7.956;2023-10-13T02:42:06;24.00;;;13.17;;
5121;SDS011;2563;52.242;7.956;2023-10-13T02:44:36;26.83;;;13.83;;
5121;SDS011;2563;52.242;7.956;2023-10-13T02:47:04;31.97;;;14.60;;
5121;SDS011;2563;52.242;7.956;2023-10-13T02:49:38;32.40;;;15.80;;
5121;SDS011;2563;52.242;7.956;2023-10-13T02:52:08;27.47;;;14.80;;
5121;SDS011;2563;52.242;7.956;2023-10-13T02:54:34;28.47;;;15.80;;
5121;SDS011;2563;52.242;7.956;2023-10-13T02:57:04;24.93;;;14.13;;
5121;SDS011;2563;52.242;7.956;2023-10-13T02:59:30;27.83;;;13.60;;
5121;SDS011;2563;52.242;7.956;2023-10-13T03:02:00;30.57;;;16.00;;
5121;SDS011;2563;52.242;7.956;2023-10-13T03:04:32;27.50;;;15.20;;
5121;SDS011;2563;52.242;7.956;2023-10-13T03:06:57;23.80;;;13.03;;
5121;SDS011;2563;52.242;7.956;2023-10-13T03:09:24;28.37;;;16.93;;
5121;SDS011;2563;52.242;7.956;2023-10-13T03:11:50;32.23;;;16.23;;
5121;SDS011;2563;52.242;7.956;2023-10-13T03:14:16;29.37;;;15.97;;
5121;SDS011;2563;52.242;7.956;2023-10-13T03:16:52;28.40;;;14.83;;
5121;SDS011;2563;52.242;7.956;2023-10-13T03:19:30;31.67;;;15.53;;
5121;SDS011;2563;52.242;7.956;2023-10-13T03:21:59;27.23;;;15.20;;
5121;SDS011;2563;52.242;7.956;2023-10-13T03:24:31;27.47;;;14.57;;
5121;SDS011;2563;52.242;7.956;2023-10-13T03:27:02;26.93;;;14.53;;
5121;SDS011;2563;52.242;7.956;2023-10-13T03:29:37;27.03;;;14.63;;
5121;SDS011;2563;52.242;7.956;2023-10-13T03:32:16;25.73;;;14.17;;
5121;SDS011;2563;52.242;7.956;2023-10-13T03:34:42;34.93;;;14.40;;
5121;SDS011;2563;52.242;7.956;2023-10-13T03:37:17;29.07;;;14.13;;
5121;SDS011;2563;52.242;7.956;2023-10-13T03:39:44;22.23;;;12.30;;
5121;SDS011;2563;52.242;7.956;2023-10-13T03:42:10;22.27;;;12.30;;
5121;SDS011;2563;52.242;7.956;2023-10-13T03:44:43;26.23;;;11.93;;
5121;SDS011;2563;52.242;7.956;2023-10-13T03:47:11;24.90;;;12.83;;
5121;SDS011;2563;52.242;7.956;2023-10-13T03:49:44;27.80;;;13.20;;
5121;SDS011;2563;52.242;7.956;2023-10-13T03:52:10;26.57;;;14.40;;
5121;SDS011;2563;52.242;7.956;2023-10-13T03:54:39;23.17;;;11.80;;
5121;SDS011;2563;52.242;7.956;2023-10-13T03:57:06;23.60;;;12.90;;
5121;SDS011;2563;52.242;7.956;2023-10-13T03:59:36;29.60;;;13.40;;
5121;SDS011;2563;52.242;7.956;2023-10-13T04:02:03;25.97;;;13.53;;
5121;SDS011;2563;52.242;7.956;2023-10-13T04:04:36;26.40;;;13.93;;
5121;SDS011;2563;52.242;7.956;2023-10-13T04:07:18;29.23;;;13.63;;
5121;SDS011;2563;52.242;7.956;2023-10-13T04:10:03;27.50;;;12.37;;
5121;SDS011;2563;52.242;7.956;2023-10-13T04:12:54;31.93;;;13.50;;
5121;SDS011;2563;52.242;7.956;2023-10-13T04:15:38;28.33;;;13.27;;
5121;SDS011;2563;52.242;7.956;2023-10-13T04:18:26;26.10;;;14.30;;
5121;SDS011;2563;52.242;7.956;2023-10-13T04:21:10;29.93;;;13.43;;
5121;SDS011;2563;52.242;7.956;2023-10-13T04:23:56;26.60;;;12.73;;
5121;SDS011;2563;52.242;7.956;2023-10-13T04:26:48;24.70;;;13.43;;
5121;SDS011;2563;52.242;7.956;2023-10-13T04:29:33;27.43;;;12.97;;
5121;SDS011;2563;52.242;7.956;2023-10-13T04:32:13;24.30;;;13.20;;
5121;SDS011;2563;52.242;7.956;2023-10-13T04:34:56;25.40;;;13.47;;
5121;SDS011;2563;52.242;7.956;2023-10-13T04:37:33;30.23;;;14.23;;
5121;SDS011;2563;52.242;7.956;2023-10-13T04:40:13;27.77;;;14.50;;
5121;SDS011;2563;52.242;7.956;2023-10-13T04:42:39;32.40;;;14.47;;
5121;SDS011;2563;52.242;7.956;2023-10-13T04:45:15;25.23;;;13.70;;
5121;SDS011;2563;52.242;7.956;2023-10-13T04:48:00;29.03;;;14.70;;
5121;SDS011;2563;52.242;7.956;2023-10-13T04:50:47;31.20;;;13.77;;
5121;SDS011;2563;52.242;7.956;2023-10-13T04:53:17;29.00;;;14.13;;
5121;SDS011;2563;52.242;7.956;2023-10-13T04:55:59;29.00;;;14.20;;
5121;SDS011;2563;52.242;7.956;2023-10-13T04:58:28;24.00;;;13.20;;
5121;SDS011;2563;52.242;7.956;2023-10-13T05:01:00;27.47;;;13.73;;
5121;SDS011;2563;52.242;7.956;2023-10-13T05:03:48;23.20;;;13.07;;
5121;SDS011;2563;52.242;7.956;2023-10-13T05:06:19;23.03;;;11.57;;
5121;SDS011;2563;52.242;7.956;2023-10-13T05:09:03;25.73;;;12.03;;
5121;SDS011;2563;52.242;7.956;2023-10-13T05:11:47;26.83;;;12.53;;
5121;SDS011;2563;52.242;7.956;2023-10-13T05:14:31;22.67;;;12.43;;
5121;SDS011;2563;52.242;7.956;2023-10-13T05:17:15;21.90;;;11.10;;
5121;SDS011;2563;52.242;7.956;2023-10-13T05:19:59;19.33;;;10.77;;
5121;SDS011;2563;52.242;7.956;2023-10-13T05:22:43;21.00;;;11.27;;
5121;SDS011;2563;52.242;7.956;2023-10-13T05:25:27;17.33;;;9.57;;
5121;SDS011;2563;52.242;7.956;2023-10-13T05:28:11;17.43;;;8.73;;
5121;SDS011;2563;52.242;7.956;2023-10-13T05:30:58;22.73;;;10.30;;
5121;SDS011;2563;52.242;7.956;2023-10-13T05:33:43;15.27;;;7.80;;
5121;SDS011;2563;52.242;7.956;2023-10-13T05:36:31;23.23;;;7.20;;
5121;SDS011;2563;52.242;7.956;2023-10-13T05:39:16;14.97;;;7.70;;
5121;SDS011;2563;52.242;7.956;2023-10-13T05:42:01;13.00;;;6.67;;
5121;SDS011;2563;52.242;7.956;2023-10-13T05:44:45;13.60;;;7.20;;
5121;SDS011;2563;52.242;7.956;2023-10-13T05:47:29;15.67;;;7.60;;
5121;SDS011;2563;52.242;7.956;2023-10-13T05:50:15;11.07;;;6.43;;
5121;SDS011;2563;52.242;7.956;2023-10-13T05:52:45;16.33;;;6.40;;
5121;SDS011;2563;52.242;7.956;2023-10-13T05:55:31;13.77;;;6.63;;
5121;SDS011;2563;52.242;7.956;2023-10-13T05:58:15;14.27;;;7.20;;
5121;SDS011;2563;52.242;7.956;2023-10-13T06:00:59;13.67;;;6.83;;
5121;SDS011;2563;52.242;7.956;2023-10-13T06:03:44;15.40;;;8.03;;
5121;SDS011;2563;52.242;7.956;2023-10-13T06:06:28;18.83;;;9.40;;
5121;SDS011;2563;52.242;7.956;2023-10-13T06:09:12;20.80;;;7.87;;
5121;SDS011;2563;52.242;7.956;2023-10-13T06:11:56;19.83;;;10.03;;
5121;SDS011;2563;52.242;7.956;2023-10-13T06:14:40;17.93;;;9.07;;
5121;SDS011;2563;52.242;7.956;2023-10-13T06:17:23;15.17;;;8.90;;
5121;SDS011;2563;52.242;7.956;2023-10-13T06:20:08;16.63;;;9.10;;
5121;SDS011;2563;52.242;7.956;2023-10-13T06:22:52;20.30;;;8.23;;
5121;SDS011;2563;52.242;7.956;2023-10-13T06:25:36;16.50;;;9.10;;
5121;SDS011;2563;52.242;7.956;2023-10-13T06:28:21;16.43;;;9.13;;
5121;SDS011;2563;52.242;7.956;2023-10-13T06:31:05;16.33;;;9.50;;
5121;SDS011;2563;52.242;7.956;2023-10-13T06:33:33;15.67;;;9.90;;
5121;SDS011;2563;52.242;7.956;2023-10-13T06:36:02;21.20;;;9.63;;
5121;SDS011;2563;52.242;7.956;2023-10-13T06:38:29;16.13;;;9.37;;
5121;SDS011;2563;52.242;7.956;2023-10-13T06:41:01;17.70;;;9.93;;
5121;SDS011;2563;52.242;7.956;2023-10-13T06:43:33;15.77;;;9.50;;
5121;SDS011;2563;52.242;7.956;2023-10-13T06:46:11;16.77;;;9.77;;
5121;SDS011;2563;52.242;7.956;2023-10-13T06:48:48;21.37;;;9.07;;
5121;SDS011;2563;52.242;7.956;2023-10-13T06:51:15;12.43;;;7.40;;
5121;SDS011;2563;52.242;7.956;2023-10-13T06:53:46;23.53;;;8.27;;
5121;SDS011;2563;52.242;7.956;2023-10-13T06:56:13;12.47;;;6.67;;
5121;SDS011;2563;52.242;7.956;2023-10-13T06:58:48;14.17;;;7.40;;
5121;SDS011;2563;52.242;7.956;2023-10-13T07:01:16;13.60;;;7.17;;
5121;SDS011;2563;52.242;7.956;2023-10-13T07:03:47;14.03;;;6.90;;
5121;SDS011;2563;52.242;7.956;2023-10-13T07:06:18;15.10;;;6.70;;
5121;SDS011;2563;52.242;7.956;2023-10-13T07:08:47;14.23;;;6.63;;
5121;SDS011;2563;52.242;7.956;2023-10-13T07:11:24;13.00;;;6.93;;
5121;SDS011;2563;52.242;7.956;2023-10-13T07:14:02;14.37;;;7.10;;
5121;SDS011;2563;52.242;7.956;2023-10-13T07:16:55;13.00;;;7.17;;
5121;SDS011;2563;52.242;7.956;2023-10-13T07:19:25;13.10;;;6.83;;
5121;SDS011;2563;52.242;7.956;2023-10-13T07:21:58;15.20;;;8.60;;
5121;SDS011;2563;52.242;7.956;2023-10-13T07:24:27;15.20;;;7.27;;
5121;SDS011;2563;52.242;7.956;2023-10-13T07:26:57;11.40;;;6.97;;
5121;SDS011;2563;52.242;7.956;2023-10-13T07:29:32;14.90;;;7.90;;
5121;SDS011;2563;52.242;7.956;2023-10-13T07:32:01;14.57;;;7.90;;
5121;SDS011;2563;52.242;7.956;2023-10-13T07:34:38;14.90;;;7.70;;
5121;SDS011;2563;52.242;7.956;2023-10-13T07:37:04;18.30;;;8.10;;
5121;SDS011;2563;52.242;7.956;2023-10-13T07:39:33;18.40;;;6.93;;
5121;SDS011;2563;52.242;7.956;2023-10-13T07:42:04;18.00;;;6.37;;
5121;SDS011;2563;52.242;7.956;2023-10-13T07:44:30;11.80;;;6.20;;
5121;SDS011;2563;52.242;7.956;2023-10-13T07:47:02;15.37;;;6.43;;
5121;SDS011;2563;52.242;7.956;2023-10-13T07:49:33;39.57;;;6.90;;
5121;SDS011;2563;52.242;7.956;2023-10-13T07:52:02;11.50;;;6.40;;
5121;SDS011;2563;52.242;7.956;2023-10-13T07:54:46;15.63;;;5.60;;
5121;SDS011;2563;52.242;7.956;2023-10-13T07:57:21;13.13;;;6.37;;
5121;SDS011;2563;52.242;7.956;2023-10-13T07:59:54;14.97;;;6.30;;
5121;SDS011;2563;52.242;7.956;2023-10-13T08:02:31;10.53;;;5.90;;
5121;SDS011;2563;52.242;7.956;2023-10-13T08:05:18;11.53;;;5.63;;
5121;SDS011;2563;52.242;7.956;2023-10-13T08:08:04;16.67;;;6.50;;
5121;SDS011;2563;52.242;7.956;2023-10-13T08:10:39;13.13;;;5.70;;
5121;SDS011;2563;52.242;7.956;2023-10-13T08:13:07;16.40;;;6.07;;
5121;SDS011;2563;52.242;7.956;2023-10-13T08:15:37;10.20;;;5.10;;
5121;SDS011;2563;52.242;7.956;2023-10-13T08:18:05;18.70;;;5.90;;
5121;SDS011;2563;52.242;7.956;2023-10-13T08:20:39;14.90;;;4.90;;
5121;SDS011;2563;52.242;7.956;2023-10-13T08:23:05;12.23;;;5.60;;
5121;SDS011;2563;52.242;7.956;2023-10-13T08:25:40;11.83;;;6.00;;
5121;SDS011;2563;52.242;7.956;2023-10-13T08:28:35;10.73;;;5.50;;
5121;SDS011;2563;52.242;7.956;2023-10-13T08:31:06;13.60;;;5.63;;
5121;SDS011;2563;52.242;7.956;2023-10-13T08:33:47;12.23;;;5.80;;
5121;SDS011;2563;52.242;7.956;2023-10-13T08:36:13;10.13;;;5.73;;
5121;SDS011;2563;52.242;7.956;2023-10-13T08:38:58;13.47;;;5.93;;
5121;SDS011;2563;52.242;7.956;2023-10-13T08:41:41;21.07;;;6.77;;
5121;SDS011;2563;52.242;7.956;2023-10-13T08:44:23;13.10;;;7.07;;
5121;SDS011;2563;52.242;7.956;2023-10-13T08:46:57;14.67;;;6.00;;
5121;SDS011;2563;52.242;7.956;2023-10-13T08:49:31;12.20;;;5.70;;
5121;SDS011;2563;52.242;7.956;2023-10-13T08:52:04;14.40;;;4.90;;
5121;SDS011;2563;52.242;7.956;2023-10-13T08:54:32;10.53;;;5.10;;
5121;SDS011;2563;52.242;7.956;2023-10-13T08:57:04;11.57;;;4.80;;
5121;SDS011;2563;52.242;7.956;2023-10-13T08:59:48;20.90;;;4.40;;
5121;SDS011;2563;52.242;7.956;2023-10-13T09:02:20;11.70;;;4.80;;
5121;SDS011;2563;52.242;7.956;2023-10-13T09:05:08;11.73;;;4.00;;
5121;SDS011;2563;52.242;7.956;2023-10-13T09:07:54;23.50;;;5.03;;
5121;SDS011;2563;52.242;7.956;2023-10-13T09:10:22;13.00;;;4.30;;
5121;SDS011;2563;52.242;7.956;2023-10-13T09:13:09;10.83;;;3.93;;
5121;SDS011;2563;52.242;7.956;2023-10-13T09:15:36;11.83;;;3.70;;
5121;SDS011;2563;52.242;7.956;2023-10-13T09:18:24;11.17;;;4.87;;
5121;SDS011;2563;52.242;7.956;2023-10-13T09:21:11;21.40;;;4.13;;
5121;SDS011;2563;52.242;7.956;2023-10-13T09:24:08;12.53;;;4.10;;
5121;SDS011;2563;52.242;7.956;2023-10-13T09:26:46;12.93;;;3.77;;
5121;SDS011;2563;52.242;7.956;2023-10-13T09:29:15;12.80;;;4.10;;
5121;SDS011;2563;52.242;7.956;2023-10-13T09:31:43;16.87;;;5.27;;
5121;SDS011;2563;52.242;7.956;2023-10-13T09:34:10;13.30;;;5.33;;
5121;SDS011;2563;52.242;7.956;2023-10-13T09:36:35;12.37;;;4.97;;
5121;SDS011;2563;52.242;7.956;2023-10-13T09:39:01;9.03;;;4.00;;
5121;SDS011;2563;52.242;7.956;2023-10-13T09:41:54;11.13;;;4.53;;
5121;SDS011;2563;52.242;7.956;2023-10-13T09:44:21;10.83;;;4.77;;
5121;SDS011;2563;52.242;7.956;2023-10-13T09:46:46;16.17;;;4.20;;
5121;SDS011;2563;52.242;7.956;2023-10-13T09:49:14;10.20;;;4.07;;
5121;SDS011;2563;52.242;7.956;2023-10-13T09:52:09;18.73;;;4.30;;
5121;SDS011;2563;52.242;7.956;2023-10-13T09:54:44;20.83;;;4.20;;
5121;SDS011;2563;52.242;7.956;2023-10-13T09:57:24;15.77;;;4.30;;
5121;SDS011;2563;52.242;7.956;2023-10-13T10:00:12;11.60;;;4.57;;
5121;SDS011;2563;52.242;7.956;2023-10-13T10:03:12;9.67;;;4.20;;
5121;SDS011;2563;52.242;7.956;2023-10-13T10:05:55;15.00;;;4.10;;
5121;SDS011;2563;52.242;7.956;2023-10-13T10:08:28;14.33;;;4.13;;
5121;SDS011;2563;52.242;7.956;2023-10-13T10:11:27;12.47;;;4.40;;
5121;SDS011;2563;52.242;7.956;2023-10-13T10:17:11;14.20;;;4.37;;
5121;SDS011;2563;52.242;7.956;2023-10-13T10:19:48;17.17;;;5.23;;
5121;SDS011;2563;52.242;7.956;2023-10-13T10:22:24;13.53;;;5.40;;
5121;SDS011;2563;52.242;7.956;2023-10-13T10:24:55;11.73;;;5.10;;
5121;SDS011;2563;52.242;7.956;2023-10-13T10:27:27;14.87;;;5.00;;
5121;SDS011;2563;52.242;7.956;2023-10-13T10:29:57;18.23;;;4.57;;
5121;SDS011;2563;52.242;7.956;2023-10-13T10:32:36;15.17;;;4.57;;
5121;SDS011;2563;52.242;7.956;2023-10-13T10:35:03;15.40;;;4.70;;
5121;SDS011;2563;52.242;7.956;2023-10-13T10:37:34;15.07;;;4.60;;
5121;SDS011;2563;52.242;7.956;2023-10-13T10:40:06;13.97;;;5.10;;
5121;SDS011;2563;52.242;7.956;2023-10-13T10:42:33;11.33;;;5.33;;
5121;SDS011;2563;52.242;7.956;2023-10-13T10:44:59;23.53;;;5.23;;
5121;SDS011;2563;52.242;7.956;2023-10-13T10:47:30;17.83;;;4.90;;
5121;SDS011;2563;52.242;7.956;2023-10-13T10:49:59;21.20;;;5.53;;
5121;SDS011;2563;52.242;7.956;2023-10-13T10:52:32;12.37;;;5.33;;
5121;SDS011;2563;52.242;7.956;2023-10-13T10:55:02;19.13;;;5.33;;
5121;SDS011;2563;52.242;7.956;2023-10-13T10:57:39;18.73;;;5.93;;
5121;SDS011;2563;52.242;7.956;2023-10-13T11:00:17;13.40;;;5.17;;
5121;SDS011;2563;52.242;7.956;2023-10-13T11:02:54;21.20;;;5.10;;
5121;SDS011;2563;52.242;7.956;2023-10-13T11:05:25;15.50;;;5.00;;
5121;SDS011;2563;52.242;7.956;2023-10-13T11:07:57;10.87;;;4.80;;
5121;SDS011;2563;52.242;7.956;2023-10-13T11:10:23;13.17;;;5.07;;
5121;SDS011;2563;52.242;7.956;2023-10-13T11:13:00;13.07;;;4.97;;
5121;SDS011;2563;52.242;7.956;2023-10-13T11:15:44;26.40;;;6.20;;
5121;SDS011;2563;52.242;7.956;2023-10-13T11:18:10;13.00;;;4.80;;
5121;SDS011;2563;52.242;7.956;2023-10-13T11:20:46;22.10;;;6.40;;
5121;SDS011;2563;52.242;7.956;2023-10-13T11:23:15;11.93;;;5.20;;
5121;SDS011;2563;52.242;7.956;2023-10-13T11:25:41;20.33;;;6.20;;
5121;SDS011;2563;52.242;7.956;2023-10-13T11:30:46;13.10;;;5.07;;
5121;SDS011;2563;52.242;7.956;2023-10-13T11:33:15;11.57;;;5.20;;
5121;SDS011;2563;52.242;7.956;2023-10-13T11:35:53;18.47;;;5.03;;
5121;SDS011;2563;52.242;7.956;2023-10-13T11:41:03;13.60;;;5.33;;
5121;SDS011;2563;52.242;7.956;2023-10-13T11:43:33;13.00;;;4.70;;
5121;SDS011;2563;52.242;7.956;2023-10-13T11:46:11;15.20;;;4.57;;
5121;SDS011;2563;52.242;7.956;2023-10-13T11:48:43;24.27;;;6.47;;
5121;SDS011;2563;52.242;7.956;2023-10-13T11:51:11;14.37;;;5.00;;
5121;SDS011;2563;52.242;7.956;2023-10-13T11:53:49;16.33;;;5.93;;
5121;SDS011;2563;52.242;7.956;2023-10-13T11:56:18;14.03;;;4.90;;
5121;SDS011;2563;52.242;7.956;2023-10-13T11:58:47;13.00;;;5.07;;
5121;SDS011;2563;52.242;7.956;2023-10-13T12:01:13;19.77;;;5.90;;
5121;SDS011;2563;52.242;7.956;2023-10-13T12:06:23;14.23;;;5.40;;
5121;SDS011;2563;52.242;7.956;2023-10-13T12:09:11;15.97;;;5.70;;
5121;SDS011;2563;52.242;7.956;2023-10-13T12:11:47;12.23;;;5.07;;
5121;SDS011;2563;52.242;7.956;2023-10-13T12:14:16;15.20;;;5.03;;
5121;SDS011;2563;52.242;7.956;2023-10-13T12:16:43;22.90;;;5.60;;
5121;SDS011;2563;52.242;7.956;2023-10-13T12:19:14;11.63;;;5.57;;
5121;SDS011;2563;52.242;7.956;2023-10-13T12:21:43;15.63;;;5.13;;
5121;SDS011;2563;52.242;7.956;2023-10-13T12:24:09;14.90;;;7.17;;
5121;SDS011;2563;52.242;7.956;2023-10-13T12:26:48;28.33;;;10.50;;
5121;SDS011;2563;52.242;7.956;2023-10-13T12:29:20;11.40;;;5.40;;
5121;SDS011;2563;52.242;7.956;2023-10-13T12:31:48;17.83;;;6.30;;
5121;SDS011;2563;52.242;7.956;2023-10-13T12:34:26;13.20;;;5.90;;
5121;SDS011;2563;52.242;7.956;2023-10-13T12:37:12;26.27;;;6.03;;
5121;SDS011;2563;52.242;7.956;2023-10-13T12:39:57;13.00;;;5.53;;
5121;SDS011;2563;52.242;7.956;2023-10-13T12:42:41;14.67;;;5.63;;
5121;SDS011;2563;52.242;7.956;2023-10-13T12:45:25;16.77;;;5.67;;
5121;SDS011;2563;52.242;7.956;2023-10-13T12:48:09;10.63;;;5.50;;
5121;SDS011;2563;52.242;7.956;2023-10-13T12:50:53;16.93;;;6.93;;
5121;SDS011;2563;52.242;7.956;2023-10-13T12:53:32;23.73;;;5.70;;
5121;SDS011;2563;52.242;7.956;2023-10-13T12:55:58;13.43;;;5.70;;
5121;SDS011;2563;52.242;7.956;2023-10-13T12:58:23;11.60;;;5.23;;
5121;SDS011;2563;52.242;7.956;2023-10-13T13:00:52;17.00;;;6.00;;
5121;SDS011;2563;52.242;7.956;2023-10-13T13:03:26;19.77;;;5.93;;
5121;SDS011;2563;52.242;7.956;2023-10-13T13:05:54;20.10;;;5.73;;
5121;SDS011;2563;52.242;7.956;2023-10-13T13:08:20;14.23;;;5.60;;
5121;SDS011;2563;52.242;7.956;2023-10-13T13:10:47;15.00;;;6.70;;
5121;SDS011;2563;52.242;7.956;2023-10-13T13:13:13;17.60;;;6.83;;
5121;SDS011;2563;52.242;7.956;2023-10-13T13:15:41;15.53;;;6.53;;
5121;SDS011;2563;52.242;7.956;2023-10-13T13:18:07;16.90;;;5.33;;
5121;SDS011;2563;52.242;7.956;2023-10-13T13:20:37;14.80;;;5.97;;
5121;SDS011;2563;52.242;7.956;2023-10-13T13:23:04;18.33;;;6.10;;
5121;SDS011;2563;52.242;7.956;2023-10-13T13:25:30;20.00;;;6.30;;
5121;SDS011;2563;52.242;7.956;2023-10-13T13:27:58;16.17;;;5.90;;
5121;SDS011;2563;52.242;7.956;2023-10-13T13:30:30;11.97;;;5.73;;
5121;SDS011;2563;52.242;7.956;2023-10-13T13:32:59;18.00;;;6.30;;
5121;SDS011;2563;52.242;7.956;2023-10-13T13:35:29;17.83;;;5.90;;
5121;SDS011;2563;52.242;7.956;2023-10-13T13:37:59;17.80;;;7.07;;
5121;SDS011;2563;52.242;7.956;2023-10-13T13:40:34;15.43;;;6.07;;
5121;SDS011;2563;52.242;7.956;2023-10-13T13:43:03;16.00;;;6.07;;
5121;SDS011;2563;52.242;7.956;2023-10-13T13:45:28;18.57;;;7.63;;
5121;SDS011;2563;52.242;7.956;2023-10-13T13:47:54;20.03;;;6.37;;
5121;SDS011;2563;52.242;7.956;2023-10-13T13:50:23;21.97;;;6.30;;
5121;SDS011;2563;52.242;7.956;2023-10-13T13:52:52;16.60;;;5.73;;
5121;SDS011;2563;52.242;7.956;2023-10-13T13:55:21;18.67;;;7.27;;
5121;SDS011;2563;52.242;7.956;2023-10-13T13:57:47;20.40;;;6.67;;
5121;SDS011;2563;52.242;7.956;2023-10-13T14:00:15;17.00;;;6.70;;
5121;SDS011;2563;52.242;7.956;2023-10-13T14:03:02;18.47;;;6.40;;
5121;SDS011;2563;52.242;7.956;2023-10-13T14:05:39;17.67;;;6.60;;
5121;SDS011;2563;52.242;7.956;2023-10-13T14:08:05;19.50;;;6.40;;
5121;SDS011;2563;52.242;7.956;2023-10-13T14:10:36;17.80;;;5.97;;
5121;SDS011;2563;52.242;7.956;2023-10-13T14:13:22;22.07;;;7.57;;
5121;SDS011;2563;52.242;7.956;2023-10-13T14:16:07;23.90;;;5.73;;
5121;SDS011;2563;52.242;7.956;2023-10-13T14:18:41;15.30;;;7.20;;
5121;SDS011;2563;52.242;7.956;2023-10-13T14:21:13;21.37;;;6.43;;
5121;SDS011;2563;52.242;7.956;2023-10-13T14:23:49;23.23;;;6.90;;
5121;SDS011;2563;52.242;7.956;2023-10-13T14:26:16;24.43;;;5.70;;
5121;SDS011;2563;52.242;7.956;2023-10-13T14:28:49;17.13;;;5.80;;
5121;SDS011;2563;52.242;7.956;2023-10-13T14:31:34;15.40;;;6.33;;
5121;SDS011;2563;52.242;7.956;2023-10-13T14:34:04;16.23;;;5.40;;
5121;SDS011;2563;52.242;7.956;2023-10-13T14:36:30;19.33;;;5.73;;
5121;SDS011;2563;52.242;7.956;2023-10-13T14:38:59;18.13;;;6.20;;
5121;SDS011;2563;52.242;7.956;2023-10-13T14:41:25;24.97;;;5.70;;
5121;SDS011;2563;52.242;7.956;2023-10-13T14:43:51;11.27;;;4.87;;
5121;SDS011;2563;52.242;7.956;2023-10-13T14:46:16;16.90;;;5.40;;
5121;SDS011;2563;52.242;7.956;2023-10-13T14:48:48;13.63;;;4.53;;
5121;SDS011;2563;52.242;7.956;2023-10-13T14:51:16;24.30;;;4.83;;
5121;SDS011;2563;52.242;7.956;2023-10-13T14:53:45;26.60;;;7.50;;
5121;SDS011;2563;52.242;7.956;2023-10-13T14:58:38;29.20;;;6.77;;
5121;SDS011;2563;52.242;7.956;2023-10-13T15:03:43;25.50;;;6.00;;
5121;SDS011;2563;52.242;7.956;2023-10-13T15:08:54;20.83;;;5.07;;
5121;SDS011;2563;52.242;7.956;2023-10-13T15:11:21;20.07;;;5.30;;
5121;SDS011;2563;52.242;7.956;2023-10-13T15:13:52;9.93;;;4.37;;
5121;SDS011;2563;52.242;7.956;2023-10-13T15:16:18;18.40;;;5.00;;
5121;SDS011;2563;52.242;7.956;2023-10-13T15:18:51;23.07;;;5.63;;
5121;SDS011;2563;52.242;7.956;2023-10-13T15:23:48;19.80;;;4.87;;
5121;SDS011;2563;52.242;7.956;2023-10-13T15:26:14;19.83;;;5.47;;
5121;SDS011;2563;52.242;7.956;2023-10-13T15:28:40;15.17;;;4.47;;
5121;SDS011;2563;52.242;7.956;2023-10-13T15:31:18;22.43;;;5.47;;
5121;SDS011;2563;52.242;7.956;2023-10-13T15:33:59;12.67;;;4.83;;
5121;SDS011;2563;52.242;7.956;2023-10-13T15:36:34;14.70;;;5.30;;
5121;SDS011;2563;52.242;7.956;2023-10-13T15:39:00;19.30;;;5.40;;
5121;SDS011;2563;52.242;7.956;2023-10-13T15:41:26;20.90;;;6.30;;
5121;SDS011;2563;52.242;7.956;2023-10-13T15:43:53;22.10;;;5.10;;
5121;SDS011;2563;52.242;7.956;2023-10-13T15:46:20;23.37;;;5.90;;
5121;SDS011;2563;52.242;7.956;2023-10-13T15:48:48;18.13;;;4.67;;
5121;SDS011;2563;52.242;7.956;2023-10-13T15:51:17;20.07;;;4.60;;
5121;SDS011;2563;52.242;7.956;2023-10-13T15:53:44;17.17;;;5.80;;
5121;SDS011;2563;52.242;7.956;2023-10-13T15:56:12;15.83;;;5.63;;
5121;SDS011;2563;52.242;7.956;2023-10-13T16:01:14;18.57;;;5.63;;